This is the latest recevied weather packets stored in our database for station/object KB4JHU-15. If no packets are shown the sender has not sent any weather packets the latest 10 day(s).
| Time | Temp. | Humidity | Pressure | Rain* | Wind** | Luminosity | Snow |
|---|---|---|---|---|---|---|---|
| 1788101592 | 28.89° C | 67% | - | 0 mm | - | - | - |
| 1788099791 | 28.33° C | 71% | - | 0 mm | - | - | - |
| 1788097990 | 27.78° C | 74% | - | 0 mm | - | - | - |
| 1788096189 | 26.11° C | 79% | - | 0 mm | - | - | - |
| 1788094388 | 24.44° C | 88% | - | 0 mm | - | - | - |
| 1788092587 | 22.22° C | 93% | - | 0 mm | - | - | - |
| 1788090786 | 21.11° C | 94% | - | 0 mm | - | - | - |
| 1788088985 | 21.11° C | 93% | - | 0 mm | - | - | - |
| 1788087184 | 21.67° C | 92% | - | 0 mm | - | - | - |
| 1788085383 | 21.67° C | 92% | - | 0 mm | - | - | - |
| 1788083582 | 21.67° C | 92% | - | 0 mm | - | - | - |
| 1788081781 | 22.22° C | 91% | - | 0 mm | - | - | - |
| 1788079980 | 22.22° C | 90% | - | 0 mm | - | - | - |
| 1788078179 | 22.78° C | 89% | - | 0 mm | - | - | - |
| 1788076378 | 22.78° C | 88% | - | 0 mm | - | - | - |
| 1788074577 | 23.33° C | 87% | - | 0 mm | - | - | - |
| 1788072776 | 23.33° C | 87% | - | 0 mm | - | - | - |
| 1788070975 | 23.89° C | 85% | - | 0 mm | - | - | - |
| 1788069174 | 23.89° C | 84% | - | 0 mm | - | - | - |
| 1788067373 | 24.44° C | 83% | - | 0 mm | - | - | - |
| 1788065572 | 24.44° C | 82% | - | 0 mm | - | - | - |
| 1788063771 | 24.44° C | 83% | - | 0 mm | - | - | - |
| 1788061970 | 25° C | 82% | - | 0 mm | - | - | - |
| 1788060169 | 24.44° C | 82% | - | 0 mm | - | - | - |
| 1788058368 | 25° C | 80% | - | 0 mm | - | - | - |
* Rain latest hour (hover to see other rain measurements)
** Current wind speed in m/s (hover to see current wind gust speed)